Time;durP1;ratioP1;P1;durP2;ratioP2;P2;SDS_P1;SDS_P2;PMS_P1;PMS_P2;Temp;Humidity;BMP_temperature;BMP_pressure;BME280_temperature;BME280_humidity;BME280_pressure;Samples;Min_cycle;Max_cycle;Signal;HPM_P1;HPM_P2
2021/12/03 00:01:44;;;;;;;;;8.67;5.67;;;;;20.93;51.34;99356.95;107372;1301;19219;-75
2021/12/03 00:04:11;;;;;;;;;6.00;6.00;;;;;20.94;51.40;99364.13;107442;1301;19626;-75
2021/12/03 00:06:39;;;;;;;;;7.33;6.00;;;;;20.94;51.43;99369.53;107271;1301;24598;-74
2021/12/03 00:09:06;;;;;;;;;6.00;5.33;;;;;20.94;51.41;99372.13;107410;1303;18836;-75
2021/12/03 00:11:34;;;;;;;;;5.00;5.00;;;;;20.94;51.46;99373.34;107451;1301;19462;-75
2021/12/03 00:14:02;;;;;;;;;5.00;5.00;;;;;20.95;51.17;99374.34;107464;1301;20362;-75
2021/12/03 00:16:29;;;;;;;;;5.00;5.00;;;;;20.96;51.38;99382.92;107482;1301;23208;-76
2021/12/03 00:18:56;;;;;;;;;6.00;5.00;;;;;20.95;51.42;99380.84;107451;1300;19254;-75
2021/12/03 00:21:25;;;;;;;;;6.67;6.00;;;;;20.95;51.19;99382.68;107265;1301;20782;-74
2021/12/03 00:23:52;;;;;;;;;5.00;5.00;;;;;20.96;51.44;99388.33;107394;1305;18687;-74
2021/12/03 00:26:20;;;;;;;;;5.67;5.67;;;;;20.94;51.18;99390.59;107260;1304;19728;-75
2021/12/03 00:28:47;;;;;;;;;6.00;5.00;;;;;20.97;51.21;99393.60;107569;1301;20391;-75
2021/12/03 00:31:14;;;;;;;;;5.00;5.00;;;;;20.97;51.12;99393.52;107458;1301;20861;-75
2021/12/03 00:33:42;;;;;;;;;5.67;5.00;;;;;20.97;51.26;99399.73;107323;1301;18935;-75
2021/12/03 00:36:09;;;;;;;;;5.00;5.00;;;;;20.97;51.13;99404.08;107407;1303;19746;-75
2021/12/03 00:38:39;;;;;;;;;5.00;5.00;;;;;20.97;51.10;99406.42;107435;1301;22914;-74
2021/12/03 00:41:07;;;;;;;;;6.00;6.00;;;;;20.98;51.17;99411.50;107379;1301;19650;-74
2021/12/03 00:43:37;;;;;;;;;4.67;4.67;;;;;20.98;51.26;99415.68;107439;1301;19655;-75
2021/12/03 00:46:07;;;;;;;;;8.00;6.00;;;;;20.97;51.09;99415.60;107433;1301;18589;-76
2021/12/03 00:48:34;;;;;;;;;6.00;6.00;;;;;20.97;51.16;99418.29;107459;1300;18981;-75
2021/12/03 00:51:01;;;;;;;;;6.67;6.00;;;;;20.97;51.08;99426.62;107445;1304;19655;-75
2021/12/03 00:53:28;;;;;;;;;5.00;5.00;;;;;20.97;51.07;99429.52;107241;1301;22277;-75
2021/12/03 00:55:56;;;;;;;;;6.00;5.00;;;;;20.96;51.08;99434.92;107392;1301;22948;-75
2021/12/03 00:58:23;;;;;;;;;5.00;5.00;;;;;20.97;51.03;99435.00;107376;1301;19636;-75
2021/12/03 01:00:50;;;;;;;;;6.00;5.00;;;;;20.97;50.91;99439.32;107338;1301;18598;-75
2021/12/03 01:03:18;;;;;;;;;5.33;5.33;;;;;20.96;50.95;99442.38;107490;1301;20884;-77
2021/12/03 01:05:45;;;;;;;;;4.67;4.67;;;;;20.97;50.91;99445.23;107375;1301;19804;-75
2021/12/03 01:08:13;;;;;;;;;5.00;5.00;;;;;20.97;51.04;99447.20;107408;1301;18860;-77
2021/12/03 01:10:40;;;;;;;;;4.00;4.00;;;;;20.96;50.93;99445.61;107462;1301;18932;-75
2021/12/03 01:13:07;;;;;;;;;5.00;5.00;;;;;20.97;51.11;99449.92;107501;1301;22196;-75
2021/12/03 01:15:35;;;;;;;;;5.00;5.00;;;;;20.97;50.99;99448.95;107445;1301;20348;-75
2021/12/03 01:18:02;;;;;;;;;5.33;5.00;;;;;20.97;50.97;99449.42;107465;1302;19580;-75
2021/12/03 01:20:30;;;;;;;;;5.00;5.00;;;;;20.96;50.88;99452.23;107405;1301;21955;-75
2021/12/03 01:22:58;;;;;;;;;5.00;5.00;;;;;20.96;51.02;99458.89;107447;1300;18867;-75
2021/12/03 01:25:25;;;;;;;;;5.00;5.00;;;;;20.94;50.84;99457.44;107372;1301;23139;-75
2021/12/03 01:27:53;;;;;;;;;5.00;5.00;;;;;20.96;50.72;99463.13;107458;1301;20192;-75
2021/12/03 01:30:20;;;;;;;;;5.33;5.00;;;;;20.96;50.89;99465.73;107302;1301;18767;-75
2021/12/03 01:32:47;;;;;;;;;5.00;5.00;;;;;20.96;50.84;99465.68;107425;1301;19203;-75
2021/12/03 01:35:15;;;;;;;;;4.67;4.67;;;;;20.96;50.64;99469.88;107448;1301;21831;-74
2021/12/03 01:37:42;;;;;;;;;5.00;5.00;;;;;20.97;50.84;99469.75;107309;1301;18620;-75
2021/12/03 01:40:09;;;;;;;;;5.67;4.67;;;;;20.96;50.92;99469.45;107405;1302;18960;-73
2021/12/03 01:42:38;;;;;;;;;6.00;5.00;;;;;20.96;50.86;99470.54;107497;1301;19691;-73
2021/12/03 01:45:05;;;;;;;;;4.00;4.00;;;;;20.97;50.81;99476.28;107381;1305;18812;-73
2021/12/03 01:47:33;;;;;;;;;5.00;4.33;;;;;20.96;50.81;99482.73;107380;1301;20718;-73
2021/12/03 01:50:00;;;;;;;;;5.00;5.00;;;;;20.96;50.58;99482.73;107359;1301;19620;-73
2021/12/03 01:52:27;;;;;;;;;4.33;4.33;;;;;20.96;50.73;99485.42;107382;1301;18878;-73
2021/12/03 01:54:56;;;;;;;;;5.00;5.00;;;;;20.96;50.70;99486.39;107347;1302;19048;-73
2021/12/03 01:57:23;;;;;;;;;5.00;5.00;;;;;20.95;50.70;99495.89;107506;1302;20554;-73
2021/12/03 01:59:51;;;;;;;;;6.00;5.00;;;;;20.94;50.68;99501.31;107501;1301;21724;-73
2021/12/03 02:02:18;;;;;;;;;4.00;4.00;;;;;20.95;50.59;99506.12;107390;1304;18996;-73
2021/12/03 02:04:45;;;;;;;;;5.00;4.00;;;;;20.95;50.49;99507.21;107430;1301;21294;-73
2021/12/03 02:07:13;;;;;;;;;5.00;5.00;;;;;20.92;50.51;99506.20;107470;1301;19344;-73
2021/12/03 02:09:40;;;;;;;;;2.00;2.00;;;;;20.94;50.56;99510.32;107532;1301;19208;-73
2021/12/03 02:12:07;;;;;;;;;4.50;4.50;;;;;20.93;50.54;99522.14;107507;1301;19526;-74
2021/12/03 02:14:35;;;;;;;;;4.00;4.00;;;;;20.92;50.48;99525.56;107410;1301;19096;-74
2021/12/03 02:17:02;;;;;;;;;6.00;5.00;;;;;20.93;50.52;99530.72;107429;1301;21754;-74
2021/12/03 02:19:29;;;;;;;;;5.00;5.00;;;;;20.93;50.74;99541.27;107472;1301;20145;-74
2021/12/03 02:21:56;;;;;;;;;7.33;5.33;;;;;20.92;50.50;99545.20;107320;1296;29508;-73
2021/12/03 02:24:24;;;;;;;;;5.00;5.00;;;;;20.92;50.62;99549.98;107477;1303;19532;-74
2021/12/03 02:26:51;;;;;;;;;5.00;5.00;;;;;20.92;50.43;99550.91;107367;1301;19659;-74
2021/12/03 02:29:18;;;;;;;;;4.00;4.00;;;;;20.91;50.38;99557.14;107252;1301;20106;-75
2021/12/03 02:31:46;;;;;;;;;5.00;5.00;;;;;20.92;50.45;99555.42;107504;1301;19281;-74
2021/12/03 02:34:13;;;;;;;;;4.33;4.33;;;;;20.91;50.40;99555.89;107515;1301;19946;-74
2021/12/03 02:36:40;;;;;;;;;5.00;5.00;;;;;20.91;50.50;99554.46;107234;1301;21920;-74
2021/12/03 02:39:08;;;;;;;;;5.00;5.00;;;;;20.90;50.43;99557.40;107408;1302;18892;-74
2021/12/03 02:41:35;;;;;;;;;4.00;4.00;;;;;20.91;50.29;99562.42;107392;1301;23588;-74
2021/12/03 02:44:02;;;;;;;;;4.00;4.00;;;;;20.91;50.54;99567.83;107419;1301;18793;-74
2021/12/03 02:46:30;;;;;;;;;4.33;4.00;;;;;20.92;50.39;99572.82;107358;1301;22211;-74
2021/12/03 02:48:57;;;;;;;;;5.00;4.50;;;;;20.91;50.38;99575.12;107320;1301;20576;-73
2021/12/03 02:51:24;;;;;;;;;5.00;5.00;;;;;20.91;50.24;99579.11;107352;1301;21850;-74
2021/12/03 02:53:52;;;;;;;;;4.33;4.00;;;;;20.91;50.43;99580.33;107436;1302;19235;-74
2021/12/03 02:56:19;;;;;;;;;4.33;4.00;;;;;20.92;50.17;99582.79;107379;1301;23903;-74
2021/12/03 02:58:46;;;;;;;;;4.33;4.33;;;;;20.91;50.28;99588.48;107451;1301;19074;-74
2021/12/03 03:01:13;;;;;;;;;4.00;4.00;;;;;20.91;50.27;99585.98;107469;1301;22298;-74
2021/12/03 03:03:41;;;;;;;;;5.00;5.00;;;;;20.91;50.34;99589.33;107336;1295;22291;-74
2021/12/03 03:06:08;;;;;;;;;4.00;4.00;;;;;20.90;50.24;99592.47;107395;1305;18539;-74
2021/12/03 03:08:36;;;;;;;;;5.00;4.00;;;;;20.91;50.21;99590.96;107440;1301;20358;-74
2021/12/03 03:11:06;;;;;;;;;4.00;4.00;;;;;20.91;50.21;99592.17;107434;1301;20317;-74
2021/12/03 03:13:33;;;;;;;;;4.00;4.00;;;;;20.91;50.12;99588.95;107324;1301;19832;-74
2021/12/03 03:16:00;;;;;;;;;6.00;5.00;;;;;20.90;50.08;99594.90;107487;1301;19004;-74
2021/12/03 03:18:28;;;;;;;;;4.00;4.00;;;;;20.90;50.12;99595.11;107402;1301;22950;-74
2021/12/03 03:20:55;;;;;;;;;4.00;4.00;;;;;20.90;50.08;99598.09;107473;1301;20990;-74
2021/12/03 03:23:22;;;;;;;;;4.00;4.00;;;;;20.89;50.11;99605.54;107382;1301;22237;-74
2021/12/03 03:25:50;;;;;;;;;5.00;5.00;;;;;20.90;50.03;99608.90;107385;1304;19852;-74
2021/12/03 03:28:17;;;;;;;;;4.00;4.00;;;;;20.89;50.17;99608.40;107343;1301;18771;-74
2021/12/03 03:30:44;;;;;;;;;4.00;4.00;;;;;20.89;50.06;99614.92;107442;1301;22062;-74
2021/12/03 03:33:12;;;;;;;;;5.00;5.00;;;;;20.90;50.02;99621.09;107401;1301;21240;-74
2021/12/03 03:35:39;;;;;;;;;4.33;4.00;;;;;20.89;49.90;99621.89;107357;1300;22253;-74
2021/12/03 03:38:06;;;;;;;;;5.00;4.33;;;;;20.89;50.05;99627.30;107403;1301;19791;-74
2021/12/03 03:40:33;;;;;;;;;4.00;4.00;;;;;20.89;50.12;99626.88;107407;1301;20164;-74
2021/12/03 03:43:01;;;;;;;;;4.00;4.00;;;;;20.89;50.03;99624.31;107432;1301;21696;-74
2021/12/03 03:45:28;;;;;;;;;5.00;4.00;;;;;20.88;49.97;99609.65;107454;1304;19759;-74
2021/12/03 03:47:56;;;;;;;;;3.33;3.33;;;;;20.89;49.88;99605.25;107335;1301;19850;-74
2021/12/03 03:50:23;;;;;;;;;5.00;5.00;;;;;20.89;49.87;99607.39;107402;1302;18876;-74
2021/12/03 03:52:50;;;;;;;;;3.67;3.33;;;;;20.88;49.98;99604.78;107475;1301;19496;-73
2021/12/03 03:55:17;;;;;;;;;4.67;4.67;;;;;20.88;49.99;99600.81;107447;1301;19689;-73
2021/12/03 03:57:45;;;;;;;;;4.00;4.00;;;;;20.89;49.74;99602.70;107489;1304;19235;-73
2021/12/03 04:00:12;;;;;;;;;4.00;4.00;;;;;20.88;49.88;99604.59;107501;1306;19121;-75
2021/12/03 04:02:39;;;;;;;;;5.00;4.67;;;;;20.88;49.98;99604.63;107372;1304;19696;-73
2021/12/03 04:05:07;;;;;;;;;5.00;5.00;;;;;20.88;49.88;99602.11;107443;1301;18680;-73
2021/12/03 04:07:34;;;;;;;;;4.00;4.00;;;;;20.88;49.82;99605.51;107426;1301;18976;-73
2021/12/03 04:10:01;;;;;;;;;2.00;2.00;;;;;20.88;49.87;99603.74;107444;1301;19608;-76
2021/12/03 04:12:29;;;;;;;;;3.33;3.33;;;;;20.87;49.86;99601.64;107419;1298;22895;-72
2021/12/03 04:14:56;;;;;;;;;4.00;4.00;;;;;20.87;49.81;99601.45;107507;1301;20005;-74
2021/12/03 04:17:23;;;;;;;;;5.00;5.00;;;;;20.87;49.70;99606.14;107412;1301;19784;-73
2021/12/03 04:19:51;;;;;;;;;4.00;4.00;;;;;20.87;49.62;99599.26;107314;1301;23110;-73
2021/12/03 04:22:23;;;;;;;;;5.33;4.67;;;;;20.87;49.58;99604.00;107352;1301;20394;-73
2021/12/03 04:24:50;;;;;;;;;4.00;4.00;;;;;20.86;49.71;99599.00;107477;1301;19638;-73
2021/12/03 04:27:18;;;;;;;;;4.50;4.00;;;;;20.87;49.65;99602.77;107481;1301;18574;-73
2021/12/03 04:29:45;;;;;;;;;4.00;4.00;;;;;20.87;49.59;99608.04;107305;1301;19468;-73
2021/12/03 04:32:13;;;;;;;;;6.00;4.00;;;;;20.86;49.70;99606.70;107325;1301;19762;-75
2021/12/03 04:34:40;;;;;;;;;5.00;4.00;;;;;20.86;49.56;99608.49;107401;1301;19166;-74
2021/12/03 04:37:08;;;;;;;;;4.33;4.33;;;;;20.86;49.60;99609.52;107359;1301;19243;-73
2021/12/03 04:39:35;;;;;;;;;2.00;2.00;;;;;20.86;49.64;99609.05;107304;1301;20119;-74
2021/12/03 04:42:03;;;;;;;;;4.00;4.00;;;;;20.85;49.48;99605.48;107400;1301;18857;-74
2021/12/03 04:44:30;;;;;;;;;5.00;5.00;;;;;20.85;49.48;99609.33;107383;1301;19665;-73
2021/12/03 04:46:57;;;;;;;;;6.00;5.00;;;;;20.87;49.55;99612.41;107437;1298;20964;-73
2021/12/03 04:49:25;;;;;;;;;4.00;4.00;;;;;20.86;49.44;99608.71;107504;1301;18803;-74
2021/12/03 04:51:52;;;;;;;;;4.00;2.67;;;;;20.86;49.28;99609.92;107282;1302;21200;-75
2021/12/03 04:54:19;;;;;;;;;5.00;5.00;;;;;20.86;49.52;99611.73;107463;1300;19830;-74
2021/12/03 04:56:46;;;;;;;;;4.00;4.00;;;;;20.86;49.48;99604.15;107293;1299;19092;-74
2021/12/03 04:59:14;;;;;;;;;5.00;5.00;;;;;20.86;49.32;99610.18;107277;1300;18998;-74
2021/12/03 05:01:41;;;;;;;;;4.00;4.00;;;;;20.86;49.27;99610.81;107339;1301;19715;-73
2021/12/03 05:04:09;;;;;;;;;3.33;2.00;;;;;20.86;49.29;99608.00;107313;1301;18455;-74
2021/12/03 05:06:53;;;;;;;;;4.00;4.00;;;;;20.85;49.41;99611.18;107432;1301;18756;-74
2021/12/03 05:09:20;;;;;;;;;4.00;4.00;;;;;20.85;49.51;99614.33;107382;1301;19725;-73
2021/12/03 05:11:47;;;;;;;;;4.00;4.00;;;;;20.85;49.42;99620.48;107362;1301;18751;-74
2021/12/03 05:14:15;;;;;;;;;2.00;2.00;;;;;20.84;49.26;99615.63;107344;1303;19107;-75
2021/12/03 05:16:45;;;;;;;;;4.00;4.00;;;;;20.84;49.32;99616.71;107286;1300;19640;-74
2021/12/03 05:19:12;;;;;;;;;4.00;4.00;;;;;20.85;49.26;99619.56;107147;1301;220439;-75
2021/12/03 05:21:40;;;;;;;;;4.50;4.50;;;;;20.83;49.29;99620.83;107379;1301;19108;-75
2021/12/03 05:24:07;;;;;;;;;5.00;4.00;;;;;20.83;49.13;99616.71;107370;1301;22090;-75
2021/12/03 05:26:35;;;;;;;;;4.00;4.00;;;;;20.83;49.32;99618.18;107335;1301;18586;-74
2021/12/03 05:29:02;;;;;;;;;4.00;4.00;;;;;20.82;49.12;99618.98;107295;1301;19170;-75
2021/12/03 05:31:29;;;;;;;;;6.00;5.00;;;;;20.82;49.07;99618.47;107307;1301;21449;-76
2021/12/03 05:33:57;;;;;;;;;4.00;4.00;;;;;20.82;49.09;99615.20;107318;1301;18895;-75
2021/12/03 05:36:24;;;;;;;;;3.33;3.33;;;;;20.82;49.13;99617.77;107390;1304;18893;-73
2021/12/03 05:38:51;;;;;;;;;5.00;4.67;;;;;20.82;48.97;99619.19;107410;1301;19706;-73
2021/12/03 05:41:19;;;;;;;;;2.00;2.00;;;;;20.81;49.01;99621.98;107343;1301;18609;-74
2021/12/03 05:43:46;;;;;;;;;4.00;4.00;;;;;20.83;48.95;99626.23;107389;1301;19482;-73
2021/12/03 05:46:13;;;;;;;;;4.00;4.00;;;;;20.83;49.03;99624.55;107347;1304;19755;-74
2021/12/03 05:48:41;;;;;;;;;4.00;4.00;;;;;20.80;48.82;99609.13;107286;1301;19167;-73
2021/12/03 05:51:10;;;;;;;;;4.00;4.00;;;;;20.82;48.92;99613.16;107420;1301;18927;-74
2021/12/03 05:53:37;;;;;;;;;4.00;4.00;;;;;20.83;48.97;99614.20;107395;1301;19852;-74
2021/12/03 05:56:05;;;;;;;;;4.00;4.00;;;;;20.82;48.91;99607.70;107401;1301;28346;-74
2021/12/03 05:58:32;;;;;;;;;4.00;4.00;;;;;20.82;48.73;99604.06;107292;1301;18962;-74
2021/12/03 06:00:59;;;;;;;;;4.00;4.00;;;;;20.83;48.73;99603.90;107391;1301;20081;-74
2021/12/03 06:03:26;;;;;;;;;4.00;4.00;;;;;20.83;48.65;99601.21;107500;1301;20094;-73
2021/12/03 06:05:54;;;;;;;;;4.00;4.00;;;;;20.87;48.88;99599.09;107431;1301;19179;-73
2021/12/03 06:08:21;;;;;;;;;4.00;4.00;;;;;20.89;48.83;99597.63;107184;1301;20600;-74
2021/12/03 06:10:48;;;;;;;;;4.00;4.00;;;;;20.93;48.62;99594.83;107287;1300;21851;-74
2021/12/03 06:13:16;;;;;;;;;2.67;2.67;;;;;20.97;48.56;99600.25;107333;1301;22388;-74
2021/12/03 06:15:43;;;;;;;;;2.00;2.00;;;;;21.01;48.99;99599.13;107327;1301;20484;-75
2021/12/03 06:18:10;;;;;;;;;4.00;4.00;;;;;21.02;49.13;99593.59;107309;1300;18751;-75
2021/12/03 06:20:38;;;;;;;;;2.67;2.67;;;;;21.03;49.10;99601.93;107354;1298;22541;-74
2021/12/03 06:23:05;;;;;;;;;2.00;2.00;;;;;21.04;49.61;99604.73;107387;1300;22124;-74
2021/12/03 06:25:32;;;;;;;;;4.00;4.00;;;;;21.00;49.56;99606.54;107336;1301;18936;-75
2021/12/03 06:28:00;;;;;;;;;5.00;4.00;;;;;20.96;49.68;99602.38;107087;1301;19135;-74
2021/12/03 06:30:27;;;;;;;;;4.00;4.00;;;;;20.94;49.98;99603.09;107402;1301;19996;-74
2021/12/03 06:32:54;;;;;;;;;4.00;4.00;;;;;20.94;49.83;99601.63;107347;1301;22190;-74
2021/12/03 06:35:21;;;;;;;;;4.00;4.00;;;;;20.93;49.86;99597.17;107297;1301;19278;-76
2021/12/03 06:37:49;;;;;;;;;2.67;2.67;;;;;20.93;50.06;99596.77;107320;1301;21255;-75
2021/12/03 06:40:16;;;;;;;;;4.00;4.00;;;;;20.93;50.13;99603.38;107311;1301;18735;-75
2021/12/03 06:42:43;;;;;;;;;4.00;3.33;;;;;20.92;50.01;99596.58;107307;1301;20782;-75
2021/12/03 06:45:11;;;;;;;;;6.00;4.00;;;;;20.92;49.83;99595.98;107217;1301;19691;-76
2021/12/03 06:47:38;;;;;;;;;2.67;2.67;;;;;20.94;49.78;99599.45;107016;1300;22295;-76
2021/12/03 06:50:07;;;;;;;;;5.00;4.00;;;;;20.93;49.92;99594.29;107326;1301;19482;-75
2021/12/03 06:52:37;;;;;;;;;4.00;4.00;;;;;20.91;49.61;99607.39;107306;1301;19779;-76
2021/12/03 06:55:05;;;;;;;;;4.00;3.33;;;;;20.90;49.77;99606.05;107335;1301;19073;-76
2021/12/03 06:57:32;;;;;;;;;5.00;5.00;;;;;20.90;49.96;99603.41;107377;1301;20685;-76
2021/12/03 07:00:00;;;;;;;;;2.67;2.00;;;;;20.89;49.72;99604.45;107343;1301;20570;-75
2021/12/03 07:02:27;;;;;;;;;2.67;2.67;;;;;20.88;49.70;99606.27;107350;1301;18568;-76
2021/12/03 07:04:54;;;;;;;;;3.00;2.00;;;;;20.88;49.62;99611.91;107390;1301;19644;-75
2021/12/03 07:07:22;;;;;;;;;4.67;4.00;;;;;20.87;49.63;99610.65;107318;1301;20143;-76
2021/12/03 07:09:49;;;;;;;;;6.00;4.00;;;;;20.88;49.68;99611.63;107459;1301;21902;-75
2021/12/03 07:12:17;;;;;;;;;2.67;2.67;;;;;20.88;49.62;99617.61;107116;1301;19903;-74
2021/12/03 07:14:44;;;;;;;;;4.00;4.00;;;;;20.89;49.53;99619.88;107239;1299;26085;-76
2021/12/03 07:17:11;;;;;;;;;4.00;4.00;;;;;20.92;49.46;99627.66;107317;1301;18538;-75
2021/12/03 07:19:39;;;;;;;;;4.00;4.00;;;;;20.94;49.19;99631.51;107233;1301;18952;-75
2021/12/03 07:22:06;;;;;;;;;2.00;2.00;;;;;20.96;48.95;99626.18;107340;1301;19712;-76
2021/12/03 07:24:34;;;;;;;;;2.67;2.67;;;;;20.98;49.40;99629.75;107355;1304;18820;-75
2021/12/03 07:27:02;;;;;;;;;4.00;4.00;;;;;21.00;49.57;99631.70;107321;1301;18800;-76
2021/12/03 07:29:31;;;;;;;;;2.00;2.00;;;;;21.00;49.42;99632.48;107224;1301;21768;-74
2021/12/03 07:31:59;;;;;;;;;4.00;4.00;;;;;21.01;49.64;99631.64;107267;1304;19070;-74
2021/12/03 07:34:26;;;;;;;;;2.00;2.00;;;;;21.01;49.62;99639.15;107290;1300;19396;-74
2021/12/03 07:36:53;;;;;;;;;2.00;2.00;;;;;21.00;49.72;99640.33;107416;1301;19729;-73
2021/12/03 07:39:21;;;;;;;;;4.00;4.00;;;;;20.95;49.63;99640.80;107324;1301;19093;-74
2021/12/03 07:41:48;;;;;;;;;4.00;4.00;;;;;21.00;50.15;99641.70;107308;1301;22101;-73
2021/12/03 07:44:15;;;;;;;;;4.00;4.00;;;;;21.00;49.69;99652.94;107274;1300;20088;-74
2021/12/03 07:46:43;;;;;;;;;4.00;4.00;;;;;21.00;50.13;99648.74;107331;1301;20654;-74
2021/12/03 07:49:10;;;;;;;;;4.00;4.00;;;;;21.04;51.15;99656.34;107348;1301;18903;-74
2021/12/03 07:51:37;;;;;;;;;4.00;4.00;;;;;21.08;52.43;99658.19;107271;1301;19663;-73
2021/12/03 07:54:05;;;;;;;;;4.00;4.00;;;;;21.13;53.05;99661.39;107343;1305;18712;-74
2021/12/03 07:56:32;;;;;;;;;4.00;4.00;;;;;21.14;52.93;99660.72;107357;1301;19004;-74
2021/12/03 07:58:59;;;;;;;;;5.00;4.00;;;;;21.16;54.12;99660.56;107450;1301;20534;-74
2021/12/03 08:01:27;;;;;;;;;6.00;6.00;;;;;21.21;54.17;99655.88;107398;1301;19379;-75
2021/12/03 08:03:54;;;;;;;;;4.50;3.00;;;;;21.23;53.87;99664.70;107383;1301;18918;-75
2021/12/03 08:06:22;;;;;;;;;2.00;2.00;;;;;21.22;53.78;99670.34;107404;1301;19690;-72
2021/12/03 08:08:49;;;;;;;;;4.00;4.00;;;;;21.21;53.65;99677.30;107396;1301;18556;-74
2021/12/03 08:11:17;;;;;;;;;4.00;4.00;;;;;21.20;53.30;99672.02;107417;1301;20645;-73
2021/12/03 08:13:45;;;;;;;;;5.00;4.67;;;;;21.20;53.01;99672.94;107441;1301;19623;-73
2021/12/03 08:16:12;;;;;;;;;2.67;2.67;;;;;21.18;52.70;99670.34;107435;1301;20223;-73
2021/12/03 08:18:39;;;;;;;;;2.67;2.67;;;;;21.18;52.91;99672.17;107433;1301;20330;-72
2021/12/03 08:21:07;;;;;;;;;4.00;4.00;;;;;21.16;52.51;99671.84;107442;1301;20087;-73
2021/12/03 08:23:34;;;;;;;;;4.00;2.00;;;;;21.15;52.12;99669.89;107321;1301;18586;-72
2021/12/03 08:26:01;;;;;;;;;4.00;4.00;;;;;21.12;52.07;99666.97;107231;1301;19142;-72
2021/12/03 08:28:28;;;;;;;;;4.00;4.00;;;;;21.11;52.13;99667.59;107196;1300;20333;-73
2021/12/03 08:30:56;;;;;;;;;4.00;4.00;;;;;21.12;52.15;99670.79;107412;1300;19174;-74
2021/12/03 08:33:23;;;;;;;;;4.00;4.00;;;;;21.14;52.12;99665.16;107271;1301;19290;-74
2021/12/03 08:35:50;;;;;;;;;2.00;2.00;;;;;21.14;51.93;99664.16;107255;1301;20279;-74
2021/12/03 08:38:18;;;;;;;;;4.00;4.00;;;;;21.10;51.68;99669.56;107289;1301;20596;-74
2021/12/03 08:40:45;;;;;;;;;4.67;2.00;;;;;21.12;51.68;99679.64;107293;1301;20994;-75
2021/12/03 08:43:12;;;;;;;;;4.00;4.00;;;;;21.11;51.57;99681.18;107316;1300;21055;-75
2021/12/03 08:45:40;;;;;;;;;4.00;4.00;;;;;21.11;51.44;99679.84;107259;1301;18706;-74
2021/12/03 08:48:07;;;;;;;;;4.00;4.00;;;;;21.13;51.47;99685.16;107509;1301;19731;-73
2021/12/03 08:50:36;;;;;;;;;4.00;2.00;;;;;21.14;51.33;99689.98;107426;1301;19839;-74
2021/12/03 08:53:21;;;;;;;;;5.00;5.00;;;;;21.15;51.40;99686.63;107445;1301;21391;-74
2021/12/03 08:55:48;;;;;;;;;2.00;2.00;;;;;21.17;51.36;99685.47;107373;1301;19373;-73
2021/12/03 08:58:16;;;;;;;;;2.67;2.67;;;;;21.17;51.13;99689.58;107360;1301;20734;-73
2021/12/03 09:00:44;;;;;;;;;4.00;4.00;;;;;21.19;50.94;99691.47;107402;1301;18765;-72
2021/12/03 09:03:11;;;;;;;;;5.33;4.33;;;;;21.18;51.49;99695.79;107485;1304;19183;-74
2021/12/03 09:05:39;;;;;;;;;5.00;4.00;;;;;21.20;51.87;99694.77;107392;1301;19699;-74
2021/12/03 09:08:07;;;;;;;;;4.00;4.00;;;;;21.23;52.55;99690.39;107413;1301;18764;-75
2021/12/03 09:10:34;;;;;;;;;4.67;4.00;;;;;21.24;52.46;99685.66;107432;1301;22095;-76
2021/12/03 09:13:03;;;;;;;;;2.67;2.67;;;;;21.22;52.56;99678.98;107392;1301;20148;-75
2021/12/03 09:15:36;;;;;;;;;3.33;2.00;;;;;21.24;52.25;99690.77;107342;1305;21831;-76
2021/12/03 09:18:16;;;;;;;;;4.00;4.00;;;;;21.27;52.36;99695.60;107304;1301;21931;-74
2021/12/03 09:20:51;;;;;;;;;2.00;2.00;;;;;21.28;51.58;99696.57;107258;1301;23399;-77
2021/12/03 09:23:24;;;;;;;;;5.00;4.67;;;;;21.26;51.75;99702.09;107381;1301;18603;-75
2021/12/03 09:25:54;;;;;;;;;5.00;4.00;;;;;21.26;51.81;99702.10;107312;1300;19247;-75
2021/12/03 09:28:26;;;;;;;;;6.00;5.33;;;;;21.27;52.04;99700.39;107381;1300;20635;-75
2021/12/03 09:30:53;;;;;;;;;81.50;62.50;;;;;21.26;52.08;99696.34;107318;1301;19208;-75
2021/12/03 09:33:23;;;;;;;;;147.33;107.00;;;;;21.23;52.08;99700.38;107310;1301;19643;-75
2021/12/03 09:35:55;;;;;;;;;204.00;150.33;;;;;21.24;51.77;99699.41;107327;1300;19518;-76
2021/12/03 09:38:24;;;;;;;;;283.50;205.50;;;;;21.26;51.72;99700.29;107333;1301;19296;-75
2021/12/03 09:40:52;;;;;;;;;292.75;206.00;;;;;21.25;51.78;99698.98;107232;1295;23557;-76
2021/12/03 09:43:19;;;;;;;;;340.00;235.00;;;;;21.26;51.79;99700.79;107404;1299;23227;-76
2021/12/03 09:45:55;;;;;;;;;248.75;175.75;;;;;21.29;51.43;99707.00;107357;1301;19616;-76
2021/12/03 09:48:31;;;;;;;;;237.75;172.50;;;;;21.29;51.24;99706.23;107222;1300;19239;-75
2021/12/03 09:51:00;;;;;;;;;194.50;148.75;;;;;21.29;51.21;99707.46;107163;1300;20015;-76
2021/12/03 09:53:42;;;;;;;;;162.50;125.00;;;;;21.31;51.36;99711.66;107184;1300;19360;-75
2021/12/03 09:56:11;;;;;;;;;134.00;101.00;;;;;21.31;50.83;99717.02;107208;1299;22971;-75
2021/12/03 09:59:08;;;;;;;;;135.33;103.33;;;;;21.28;50.58;99723.99;107156;1301;19945;-76
2021/12/03 10:01:38;;;;;;;;;120.00;90.50;;;;;21.22;50.62;99721.15;106900;1300;19226;-75
2021/12/03 10:04:21;;;;;;;;;116.33;87.33;;;;;21.18;50.74;99721.65;107128;1301;20223;-76
2021/12/03 10:12:24;;;;;;;;;98.33;75.67;;;;;21.15;50.13;99721.59;107356;1301;22230;-76
2021/12/03 10:14:59;;;;;;;;;94.67;68.00;;;;;21.13;49.98;99720.16;107365;1299;23088;-77
2021/12/03 10:20:24;;;;;;;;;97.00;69.00;;;;;21.16;50.08;99717.27;107195;1301;19732;-75
2021/12/03 10:33:59;;;;;;;;;84.50;63.00;;;;;21.11;49.76;99710.59;106746;1307;19529;-74
2021/12/03 10:36:43;;;;;;;;;85.00;61.00;;;;;21.15;49.69;99709.22;107540;1306;19170;-77
2021/12/03 10:42:03;;;;;;;;;77.50;56.50;;;;;21.21;49.47;99707.99;107650;1304;19062;-77
2021/12/03 10:44:46;;;;;;;;;81.00;55.67;;;;;21.27;49.33;99709.41;107421;1304;20481;-77
2021/12/03 10:47:24;;;;;;;;;76.00;56.00;;;;;21.31;49.18;99711.45;106625;1306;22261;-76
2021/12/03 10:50:01;;;;;;;;;70.50;52.50;;;;;21.30;49.53;99713.91;106709;1303;19494;-77
2021/12/03 10:52:35;;;;;;;;;69.00;53.00;;;;;21.26;49.77;99718.98;106665;1303;23499;-77
2021/12/03 10:55:37;;;;;;;;;73.50;53.00;;;;;21.26;49.79;99719.11;106663;1304;19701;-77
2021/12/03 11:31:23;;;;;;;;;52.67;40.67;;;;;21.28;50.00;99741.13;106749;1307;19149;-76
2021/12/03 11:39:54;;;;;;;;;48.33;36.00;;;;;21.25;50.13;99749.98;106780;1304;20493;-77
2021/12/03 14:00:12;;;;;;;;;19.00;17.00;;;;;21.04;49.58;99858.48;106135;1310;21022;-80
2021/12/03 14:39:27;;;;;;;;;196.50;162.50;;;;;21.05;48.70;99893.79;105857;1316;20753;-80
2021/12/03 14:42:20;;;;;;;;;287.75;243.00;;;;;20.79;48.33;99891.91;105958;1316;18971;-80
2021/12/03 14:44:55;;;;;;;;;253.00;222.25;;;;;20.81;48.30;99903.65;105907;1317;19973;-80
2021/12/03 14:47:42;;;;;;;;;229.00;197.75;;;;;20.87;47.74;99903.74;105898;1319;19250;-80
2021/12/03 14:50:36;;;;;;;;;192.00;162.50;;;;;20.88;47.22;99902.70;106043;1314;23404;-80
2021/12/03 14:53:23;;;;;;;;;172.25;153.50;;;;;20.83;46.89;99915.73;105992;1313;19190;-79
2021/12/03 14:55:53;;;;;;;;;167.75;145.50;;;;;20.85;46.75;99911.44;106014;1314;22694;-76
2021/12/03 14:58:22;;;;;;;;;214.67;175.67;;;;;20.92;46.20;99916.12;105983;1313;21552;-77
2021/12/03 15:00:54;;;;;;;;;217.00;178.75;;;;;20.94;45.44;99919.69;106069;1317;19452;-79
2021/12/03 15:03:44;;;;;;;;;363.00;274.00;;;;;20.98;45.39;99921.42;106120;1313;19475;-79
2021/12/03 15:06:24;;;;;;;;;315.00;246.00;;;;;21.06;45.92;99927.11;107060;1312;18977;-82
2021/12/03 15:08:54;;;;;;;;;268.00;205.00;;;;;21.13;45.76;99924.59;107454;1308;18520;-80
2021/12/03 15:22:40;;;;;;;;;154.75;124.75;;;;;21.27;46.99;99941.30;106698;1308;21880;-78
2021/12/03 15:25:12;;;;;;;;;144.33;114.33;;;;;21.18;46.16;99943.59;106475;1308;18710;-81
2021/12/03 15:30:38;;;;;;;;;100.50;77.00;;;;;20.74;44.74;99942.69;106649;1308;18809;-81
2021/12/03 15:33:08;;;;;;;;;100.00;74.33;;;;;20.54;43.54;99940.52;106739;1308;20438;-81
2021/12/03 15:35:47;;;;;;;;;88.67;67.00;;;;;20.46;43.14;99946.42;106888;1304;19971;-80
2021/12/03 15:38:43;;;;;;;;;90.00;66.00;;;;;20.38;42.32;99945.20;106905;1304;21834;-81
2021/12/03 16:09:03;;;;;;;;;43.67;38.00;;;;;19.93;38.84;99959.17;105988;1317;19186;-76